sensor_id;sensor_type;location;lat;lon;timestamp;P1;durP1;ratioP1;P2;durP2;ratioP2
79015;SDS011;72726;44.842;37.556;2024-03-06T00:00:09;26.20;;;14.07;;
79015;SDS011;72726;44.842;37.556;2024-03-06T00:01:11;27.05;;;14.18;;
79015;SDS011;72726;44.842;37.556;2024-03-06T00:02:13;24.63;;;13.85;;
79015;SDS011;72726;44.842;37.556;2024-03-06T00:03:14;25.27;;;13.65;;
79015;SDS011;72726;44.842;37.556;2024-03-06T00:04:15;29.10;;;13.80;;
79015;SDS011;72726;44.842;37.556;2024-03-06T00:05:17;28.65;;;13.65;;
79015;SDS011;72726;44.842;37.556;2024-03-06T00:06:19;25.63;;;13.65;;
79015;SDS011;72726;44.842;37.556;2024-03-06T00:07:21;25.83;;;13.95;;
79015;SDS011;72726;44.842;37.556;2024-03-06T00:08:22;24.48;;;13.07;;
79015;SDS011;72726;44.842;37.556;2024-03-06T00:09:23;25.98;;;12.65;;
79015;SDS011;72726;44.842;37.556;2024-03-06T00:10:27;25.90;;;12.65;;
79015;SDS011;72726;44.842;37.556;2024-03-06T00:11:29;26.60;;;13.90;;
79015;SDS011;72726;44.842;37.556;2024-03-06T00:12:30;25.58;;;12.90;;
79015;SDS011;72726;44.842;37.556;2024-03-06T00:13:31;22.88;;;12.85;;
79015;SDS011;72726;44.842;37.556;2024-03-06T00:14:33;24.27;;;13.15;;
79015;SDS011;72726;44.842;37.556;2024-03-06T00:15:37;25.67;;;12.48;;
79015;SDS011;72726;44.842;37.556;2024-03-06T00:16:38;26.73;;;13.55;;
79015;SDS011;72726;44.842;37.556;2024-03-06T00:17:39;26.20;;;12.65;;
79015;SDS011;72726;44.842;37.556;2024-03-06T00:18:41;24.13;;;12.10;;
79015;SDS011;72726;44.842;37.556;2024-03-06T00:19:43;25.73;;;13.40;;
79015;SDS011;72726;44.842;37.556;2024-03-06T00:20:44;25.70;;;12.57;;
79015;SDS011;72726;44.842;37.556;2024-03-06T00:21:45;26.00;;;12.18;;
79015;SDS011;72726;44.842;37.556;2024-03-06T00:22:47;25.00;;;12.90;;
79015;SDS011;72726;44.842;37.556;2024-03-06T00:23:48;26.02;;;13.00;;
79015;SDS011;72726;44.842;37.556;2024-03-06T00:24:50;28.58;;;13.50;;
79015;SDS011;72726;44.842;37.556;2024-03-06T00:25:52;23.40;;;12.80;;
79015;SDS011;72726;44.842;37.556;2024-03-06T00:26:53;26.20;;;12.52;;
79015;SDS011;72726;44.842;37.556;2024-03-06T00:27:54;27.80;;;12.13;;
79015;SDS011;72726;44.842;37.556;2024-03-06T00:28:55;27.58;;;13.18;;
79015;SDS011;72726;44.842;37.556;2024-03-06T00:29:57;26.25;;;12.82;;
79015;SDS011;72726;44.842;37.556;2024-03-06T00:30:58;25.55;;;12.90;;
79015;SDS011;72726;44.842;37.556;2024-03-06T00:32:00;22.77;;;11.90;;
79015;SDS011;72726;44.842;37.556;2024-03-06T00:33:01;25.00;;;12.20;;
79015;SDS011;72726;44.842;37.556;2024-03-06T00:34:02;25.15;;;13.20;;
79015;SDS011;72726;44.842;37.556;2024-03-06T00:35:04;25.60;;;12.30;;
79015;SDS011;72726;44.842;37.556;2024-03-06T00:36:06;24.70;;;12.73;;
79015;SDS011;72726;44.842;37.556;2024-03-06T00:37:07;27.35;;;13.55;;
79015;SDS011;72726;44.842;37.556;2024-03-06T00:38:08;27.02;;;13.68;;
79015;SDS011;72726;44.842;37.556;2024-03-06T00:39:10;25.50;;;13.18;;
79015;SDS011;72726;44.842;37.556;2024-03-06T00:40:12;28.23;;;13.40;;
79015;SDS011;72726;44.842;37.556;2024-03-06T00:41:13;26.10;;;12.70;;
79015;SDS011;72726;44.842;37.556;2024-03-06T00:42:15;22.88;;;12.43;;
79015;SDS011;72726;44.842;37.556;2024-03-06T00:43:16;26.83;;;13.20;;
79015;SDS011;72726;44.842;37.556;2024-03-06T00:44:17;27.30;;;13.40;;
79015;SDS011;72726;44.842;37.556;2024-03-06T00:45:19;27.67;;;12.85;;
79015;SDS011;72726;44.842;37.556;2024-03-06T00:46:20;27.50;;;12.57;;
79015;SDS011;72726;44.842;37.556;2024-03-06T00:47:22;26.27;;;12.95;;
79015;SDS011;72726;44.842;37.556;2024-03-06T00:48:23;24.40;;;12.65;;
79015;SDS011;72726;44.842;37.556;2024-03-06T00:49:24;25.88;;;13.07;;
79015;SDS011;72726;44.842;37.556;2024-03-06T00:50:26;26.88;;;12.55;;
79015;SDS011;72726;44.842;37.556;2024-03-06T00:51:28;27.35;;;13.25;;
79015;SDS011;72726;44.842;37.556;2024-03-06T00:52:30;23.15;;;12.52;;
79015;SDS011;72726;44.842;37.556;2024-03-06T00:53:31;24.67;;;13.15;;
79015;SDS011;72726;44.842;37.556;2024-03-06T00:54:32;21.58;;;12.95;;
79015;SDS011;72726;44.842;37.556;2024-03-06T00:55:34;26.00;;;13.25;;
79015;SDS011;72726;44.842;37.556;2024-03-06T00:56:38;23.15;;;12.38;;
79015;SDS011;72726;44.842;37.556;2024-03-06T00:57:39;26.73;;;13.77;;
79015;SDS011;72726;44.842;37.556;2024-03-06T00:58:41;23.38;;;12.07;;
79015;SDS011;72726;44.842;37.556;2024-03-06T00:59:42;25.38;;;12.73;;
79015;SDS011;72726;44.842;37.556;2024-03-06T01:00:43;28.40;;;12.90;;
79015;SDS011;72726;44.842;37.556;2024-03-06T01:01:45;29.58;;;14.18;;
79015;SDS011;72726;44.842;37.556;2024-03-06T01:02:46;25.83;;;13.35;;
79015;SDS011;72726;44.842;37.556;2024-03-06T01:03:48;26.80;;;14.35;;
79015;SDS011;72726;44.842;37.556;2024-03-06T01:04:50;26.40;;;14.00;;
79015;SDS011;72726;44.842;37.556;2024-03-06T01:05:51;26.50;;;14.13;;
79015;SDS011;72726;44.842;37.556;2024-03-06T01:06:55;27.08;;;13.45;;
79015;SDS011;72726;44.842;37.556;2024-03-06T01:07:57;25.40;;;14.02;;
79015;SDS011;72726;44.842;37.556;2024-03-06T01:08:59;28.70;;;14.00;;
79015;SDS011;72726;44.842;37.556;2024-03-06T01:10:01;32.58;;;14.27;;
79015;SDS011;72726;44.842;37.556;2024-03-06T01:11:03;24.85;;;12.38;;
79015;SDS011;72726;44.842;37.556;2024-03-06T01:12:11;27.17;;;13.60;;
79015;SDS011;72726;44.842;37.556;2024-03-06T01:13:12;36.88;;;13.48;;
79015;SDS011;72726;44.842;37.556;2024-03-06T01:14:13;24.45;;;13.38;;
79015;SDS011;72726;44.842;37.556;2024-03-06T01:15:15;25.50;;;13.68;;
79015;SDS011;72726;44.842;37.556;2024-03-06T01:16:16;26.98;;;13.55;;
79015;SDS011;72726;44.842;37.556;2024-03-06T01:17:18;27.55;;;14.23;;
79015;SDS011;72726;44.842;37.556;2024-03-06T01:18:19;27.98;;;13.75;;
79015;SDS011;72726;44.842;37.556;2024-03-06T01:19:20;24.42;;;12.20;;
79015;SDS011;72726;44.842;37.556;2024-03-06T01:20:22;22.85;;;12.68;;
79015;SDS011;72726;44.842;37.556;2024-03-06T01:21:23;24.13;;;12.93;;
79015;SDS011;72726;44.842;37.556;2024-03-06T01:22:24;26.88;;;12.20;;
79015;SDS011;72726;44.842;37.556;2024-03-06T01:23:26;27.35;;;12.20;;
79015;SDS011;72726;44.842;37.556;2024-03-06T01:24:27;25.30;;;12.88;;
79015;SDS011;72726;44.842;37.556;2024-03-06T01:25:29;27.02;;;12.88;;
79015;SDS011;72726;44.842;37.556;2024-03-06T01:26:30;27.55;;;12.93;;
79015;SDS011;72726;44.842;37.556;2024-03-06T01:27:31;24.73;;;13.55;;
79015;SDS011;72726;44.842;37.556;2024-03-06T01:28:32;23.85;;;12.20;;
79015;SDS011;72726;44.842;37.556;2024-03-06T01:29:34;23.63;;;12.55;;
79015;SDS011;72726;44.842;37.556;2024-03-06T01:30:35;27.10;;;12.25;;
79015;SDS011;72726;44.842;37.556;2024-03-06T01:31:36;23.10;;;12.75;;
79015;SDS011;72726;44.842;37.556;2024-03-06T01:32:38;24.15;;;12.18;;
79015;SDS011;72726;44.842;37.556;2024-03-06T01:33:39;22.95;;;12.00;;
79015;SDS011;72726;44.842;37.556;2024-03-06T01:34:40;22.23;;;11.27;;
79015;SDS011;72726;44.842;37.556;2024-03-06T01:35:42;22.98;;;12.60;;
79015;SDS011;72726;44.842;37.556;2024-03-06T01:36:43;21.50;;;11.32;;
79015;SDS011;72726;44.842;37.556;2024-03-06T01:37:44;21.83;;;11.60;;
79015;SDS011;72726;44.842;37.556;2024-03-06T01:38:46;22.00;;;11.70;;
79015;SDS011;72726;44.842;37.556;2024-03-06T01:39:47;22.38;;;11.60;;
79015;SDS011;72726;44.842;37.556;2024-03-06T01:40:49;31.10;;;12.38;;
79015;SDS011;72726;44.842;37.556;2024-03-06T01:41:50;22.55;;;12.50;;
79015;SDS011;72726;44.842;37.556;2024-03-06T01:42:52;27.52;;;13.18;;
79015;SDS011;72726;44.842;37.556;2024-03-06T01:43:53;24.30;;;13.10;;
79015;SDS011;72726;44.842;37.556;2024-03-06T01:44:54;22.60;;;12.50;;
79015;SDS011;72726;44.842;37.556;2024-03-06T01:45:55;24.75;;;13.02;;
79015;SDS011;72726;44.842;37.556;2024-03-06T01:46:57;28.23;;;13.27;;
79015;SDS011;72726;44.842;37.556;2024-03-06T01:47:58;27.75;;;13.68;;
79015;SDS011;72726;44.842;37.556;2024-03-06T01:49:00;29.40;;;13.30;;
79015;SDS011;72726;44.842;37.556;2024-03-06T01:50:01;26.48;;;13.88;;
79015;SDS011;72726;44.842;37.556;2024-03-06T01:51:03;24.58;;;12.70;;
79015;SDS011;72726;44.842;37.556;2024-03-06T01:52:05;24.17;;;11.88;;
79015;SDS011;72726;44.842;37.556;2024-03-06T01:53:10;24.13;;;12.73;;
79015;SDS011;72726;44.842;37.556;2024-03-06T01:54:14;25.55;;;13.57;;
79015;SDS011;72726;44.842;37.556;2024-03-06T01:55:16;25.00;;;12.40;;
79015;SDS011;72726;44.842;37.556;2024-03-06T01:56:17;25.15;;;12.57;;
79015;SDS011;72726;44.842;37.556;2024-03-06T01:57:19;24.98;;;13.57;;
79015;SDS011;72726;44.842;37.556;2024-03-06T01:58:21;33.63;;;14.70;;
79015;SDS011;72726;44.842;37.556;2024-03-06T01:59:22;26.60;;;13.27;;
79015;SDS011;72726;44.842;37.556;2024-03-06T02:00:26;25.27;;;12.60;;
79015;SDS011;72726;44.842;37.556;2024-03-06T02:01:28;26.52;;;13.48;;
79015;SDS011;72726;44.842;37.556;2024-03-06T02:02:30;28.13;;;13.68;;
79015;SDS011;72726;44.842;37.556;2024-03-06T02:03:32;27.98;;;13.95;;
79015;SDS011;72726;44.842;37.556;2024-03-06T02:04:34;30.20;;;14.00;;
79015;SDS011;72726;44.842;37.556;2024-03-06T02:05:36;26.08;;;12.95;;
79015;SDS011;72726;44.842;37.556;2024-03-06T02:06:40;25.52;;;13.20;;
79015;SDS011;72726;44.842;37.556;2024-03-06T02:07:41;27.13;;;12.77;;
79015;SDS011;72726;44.842;37.556;2024-03-06T02:08:45;26.60;;;13.25;;
79015;SDS011;72726;44.842;37.556;2024-03-06T02:09:47;24.30;;;12.65;;
79015;SDS011;72726;44.842;37.556;2024-03-06T02:10:49;28.02;;;13.40;;
79015;SDS011;72726;44.842;37.556;2024-03-06T02:11:51;25.00;;;13.57;;
79015;SDS011;72726;44.842;37.556;2024-03-06T02:12:53;27.52;;;13.90;;
79015;SDS011;72726;44.842;37.556;2024-03-06T02:13:55;25.02;;;14.25;;
79015;SDS011;72726;44.842;37.556;2024-03-06T02:14:56;25.00;;;13.50;;
79015;SDS011;72726;44.842;37.556;2024-03-06T02:15:58;24.17;;;13.18;;
79015;SDS011;72726;44.842;37.556;2024-03-06T02:16:59;25.00;;;12.55;;
79015;SDS011;72726;44.842;37.556;2024-03-06T02:18:04;26.05;;;12.95;;
79015;SDS011;72726;44.842;37.556;2024-03-06T02:19:07;25.17;;;12.70;;
79015;SDS011;72726;44.842;37.556;2024-03-06T02:20:09;27.02;;;12.85;;
79015;SDS011;72726;44.842;37.556;2024-03-06T02:21:13;26.02;;;12.88;;
79015;SDS011;72726;44.842;37.556;2024-03-06T02:22:15;28.75;;;13.55;;
79015;SDS011;72726;44.842;37.556;2024-03-06T02:23:17;28.48;;;13.55;;
79015;SDS011;72726;44.842;37.556;2024-03-06T02:24:21;24.70;;;12.80;;
79015;SDS011;72726;44.842;37.556;2024-03-06T02:25:22;24.55;;;12.73;;
79015;SDS011;72726;44.842;37.556;2024-03-06T02:26:23;23.40;;;12.77;;
79015;SDS011;72726;44.842;37.556;2024-03-06T02:27:25;26.42;;;13.20;;
79015;SDS011;72726;44.842;37.556;2024-03-06T02:28:26;23.45;;;12.63;;
79015;SDS011;72726;44.842;37.556;2024-03-06T02:29:27;26.67;;;12.90;;
79015;SDS011;72726;44.842;37.556;2024-03-06T02:30:28;29.20;;;13.88;;
79015;SDS011;72726;44.842;37.556;2024-03-06T02:31:36;25.52;;;13.00;;
79015;SDS011;72726;44.842;37.556;2024-03-06T02:32:37;29.33;;;13.32;;
79015;SDS011;72726;44.842;37.556;2024-03-06T02:33:39;26.40;;;13.05;;
79015;SDS011;72726;44.842;37.556;2024-03-06T02:34:40;24.52;;;12.52;;
79015;SDS011;72726;44.842;37.556;2024-03-06T02:35:42;23.75;;;11.82;;
79015;SDS011;72726;44.842;37.556;2024-03-06T02:36:45;26.80;;;12.45;;
79015;SDS011;72726;44.842;37.556;2024-03-06T02:37:46;24.70;;;13.38;;
79015;SDS011;72726;44.842;37.556;2024-03-06T02:38:48;26.88;;;13.35;;
79015;SDS011;72726;44.842;37.556;2024-03-06T02:39:49;28.75;;;13.88;;
79015;SDS011;72726;44.842;37.556;2024-03-06T02:40:51;22.67;;;12.43;;
79015;SDS011;72726;44.842;37.556;2024-03-06T02:41:52;24.88;;;12.77;;
79015;SDS011;72726;44.842;37.556;2024-03-06T02:42:54;26.85;;;12.18;;
79015;SDS011;72726;44.842;37.556;2024-03-06T02:43:55;25.25;;;13.05;;
79015;SDS011;72726;44.842;37.556;2024-03-06T02:44:56;25.30;;;13.50;;
79015;SDS011;72726;44.842;37.556;2024-03-06T02:45:57;46.22;;;24.20;;
79015;SDS011;72726;44.842;37.556;2024-03-06T02:46:59;59.72;;;30.25;;
79015;SDS011;72726;44.842;37.556;2024-03-06T02:48:00;34.50;;;18.20;;
79015;SDS011;72726;44.842;37.556;2024-03-06T02:49:01;29.10;;;14.98;;
79015;SDS011;72726;44.842;37.556;2024-03-06T02:50:03;26.25;;;14.20;;
79015;SDS011;72726;44.842;37.556;2024-03-06T02:51:05;29.05;;;13.93;;
79015;SDS011;72726;44.842;37.556;2024-03-06T02:52:07;29.25;;;13.65;;
79015;SDS011;72726;44.842;37.556;2024-03-06T02:53:08;26.33;;;13.57;;
79015;SDS011;72726;44.842;37.556;2024-03-06T02:54:09;25.58;;;13.35;;
79015;SDS011;72726;44.842;37.556;2024-03-06T02:55:11;24.38;;;12.73;;
79015;SDS011;72726;44.842;37.556;2024-03-06T02:56:15;28.00;;;14.95;;
79015;SDS011;72726;44.842;37.556;2024-03-06T02:57:17;26.98;;;14.20;;
79015;SDS011;72726;44.842;37.556;2024-03-06T02:58:19;28.02;;;13.95;;
79015;SDS011;72726;44.842;37.556;2024-03-06T02:59:20;28.38;;;15.00;;
79015;SDS011;72726;44.842;37.556;2024-03-06T03:00:21;28.85;;;14.35;;
79015;SDS011;72726;44.842;37.556;2024-03-06T03:01:23;29.33;;;14.82;;
79015;SDS011;72726;44.842;37.556;2024-03-06T03:02:24;30.88;;;14.32;;
79015;SDS011;72726;44.842;37.556;2024-03-06T03:03:26;27.33;;;14.85;;
79015;SDS011;72726;44.842;37.556;2024-03-06T03:04:28;30.10;;;14.52;;
79015;SDS011;72726;44.842;37.556;2024-03-06T03:05:29;28.88;;;14.32;;
79015;SDS011;72726;44.842;37.556;2024-03-06T03:06:30;28.73;;;15.30;;
79015;SDS011;72726;44.842;37.556;2024-03-06T03:07:32;34.75;;;15.68;;
79015;SDS011;72726;44.842;37.556;2024-03-06T03:08:33;26.63;;;14.43;;
79015;SDS011;72726;44.842;37.556;2024-03-06T03:09:34;31.27;;;13.98;;
79015;SDS011;72726;44.842;37.556;2024-03-06T03:10:37;29.95;;;14.68;;
79015;SDS011;72726;44.842;37.556;2024-03-06T03:11:38;32.90;;;15.25;;
79015;SDS011;72726;44.842;37.556;2024-03-06T03:12:39;27.73;;;13.93;;
79015;SDS011;72726;44.842;37.556;2024-03-06T03:13:41;32.92;;;15.40;;
79015;SDS011;72726;44.842;37.556;2024-03-06T03:14:42;42.13;;;15.70;;
79015;SDS011;72726;44.842;37.556;2024-03-06T03:15:44;31.20;;;14.52;;
79015;SDS011;72726;44.842;37.556;2024-03-06T03:16:45;28.75;;;15.07;;
79015;SDS011;72726;44.842;37.556;2024-03-06T03:17:46;33.80;;;15.52;;
79015;SDS011;72726;44.842;37.556;2024-03-06T03:18:48;36.78;;;15.35;;
79015;SDS011;72726;44.842;37.556;2024-03-06T03:19:49;31.15;;;14.50;;
79015;SDS011;72726;44.842;37.556;2024-03-06T03:20:50;43.80;;;16.23;;
79015;SDS011;72726;44.842;37.556;2024-03-06T03:21:52;27.77;;;14.32;;
79015;SDS011;72726;44.842;37.556;2024-03-06T03:22:53;33.45;;;16.17;;
79015;SDS011;72726;44.842;37.556;2024-03-06T03:23:54;30.85;;;15.32;;
79015;SDS011;72726;44.842;37.556;2024-03-06T03:24:56;32.13;;;15.75;;
79015;SDS011;72726;44.842;37.556;2024-03-06T03:25:57;32.30;;;16.77;;
79015;SDS011;72726;44.842;37.556;2024-03-06T03:26:58;30.42;;;15.38;;
79015;SDS011;72726;44.842;37.556;2024-03-06T03:28:00;34.65;;;16.40;;
79015;SDS011;72726;44.842;37.556;2024-03-06T03:29:02;32.47;;;16.15;;
79015;SDS011;72726;44.842;37.556;2024-03-06T03:30:04;30.45;;;15.23;;
79015;SDS011;72726;44.842;37.556;2024-03-06T03:31:09;34.72;;;16.25;;
79015;SDS011;72726;44.842;37.556;2024-03-06T03:32:11;30.10;;;15.63;;
79015;SDS011;72726;44.842;37.556;2024-03-06T03:33:12;31.02;;;15.15;;
79015;SDS011;72726;44.842;37.556;2024-03-06T03:34:14;30.88;;;16.20;;
79015;SDS011;72726;44.842;37.556;2024-03-06T03:35:15;31.50;;;15.13;;
79015;SDS011;72726;44.842;37.556;2024-03-06T03:36:17;29.98;;;15.77;;
79015;SDS011;72726;44.842;37.556;2024-03-06T03:37:18;37.15;;;17.25;;
79015;SDS011;72726;44.842;37.556;2024-03-06T03:38:19;30.30;;;15.25;;
79015;SDS011;72726;44.842;37.556;2024-03-06T03:39:21;31.35;;;16.45;;
79015;SDS011;72726;44.842;37.556;2024-03-06T03:40:25;33.40;;;16.23;;
79015;SDS011;72726;44.842;37.556;2024-03-06T03:41:26;34.03;;;16.58;;
79015;SDS011;72726;44.842;37.556;2024-03-06T03:42:28;40.95;;;14.93;;
79015;SDS011;72726;44.842;37.556;2024-03-06T03:43:29;32.70;;;16.17;;
79015;SDS011;72726;44.842;37.556;2024-03-06T03:44:31;33.47;;;16.05;;
79015;SDS011;72726;44.842;37.556;2024-03-06T03:45:32;33.88;;;16.40;;
79015;SDS011;72726;44.842;37.556;2024-03-06T03:46:34;35.42;;;16.27;;
79015;SDS011;72726;44.842;37.556;2024-03-06T03:47:35;36.05;;;16.60;;
79015;SDS011;72726;44.842;37.556;2024-03-06T03:48:37;33.08;;;15.93;;
79015;SDS011;72726;44.842;37.556;2024-03-06T03:49:39;35.47;;;17.17;;
79015;SDS011;72726;44.842;37.556;2024-03-06T03:50:40;38.08;;;16.13;;
79015;SDS011;72726;44.842;37.556;2024-03-06T03:51:44;35.83;;;17.02;;
79015;SDS011;72726;44.842;37.556;2024-03-06T03:52:45;34.60;;;16.40;;
79015;SDS011;72726;44.842;37.556;2024-03-06T03:53:46;33.78;;;17.20;;
79015;SDS011;72726;44.842;37.556;2024-03-06T03:54:51;38.88;;;18.15;;
79015;SDS011;72726;44.842;37.556;2024-03-06T03:55:53;33.25;;;18.05;;
79015;SDS011;72726;44.842;37.556;2024-03-06T03:56:54;41.45;;;18.75;;
79015;SDS011;72726;44.842;37.556;2024-03-06T03:57:55;37.05;;;19.55;;
79015;SDS011;72726;44.842;37.556;2024-03-06T03:58:57;39.53;;;18.20;;
79015;SDS011;72726;44.842;37.556;2024-03-06T03:59:59;41.33;;;18.08;;
79015;SDS011;72726;44.842;37.556;2024-03-06T04:01:00;39.70;;;17.83;;
79015;SDS011;72726;44.842;37.556;2024-03-06T04:02:01;38.72;;;19.27;;
79015;SDS011;72726;44.842;37.556;2024-03-06T04:03:03;35.58;;;17.40;;
79015;SDS011;72726;44.842;37.556;2024-03-06T04:04:04;32.78;;;17.90;;
79015;SDS011;72726;44.842;37.556;2024-03-06T04:05:07;36.78;;;18.92;;
79015;SDS011;72726;44.842;37.556;2024-03-06T04:06:10;39.72;;;18.20;;
79015;SDS011;72726;44.842;37.556;2024-03-06T04:07:11;37.83;;;17.73;;
79015;SDS011;72726;44.842;37.556;2024-03-06T04:08:13;39.80;;;18.70;;
79015;SDS011;72726;44.842;37.556;2024-03-06T04:09:14;38.90;;;18.73;;
79015;SDS011;72726;44.842;37.556;2024-03-06T04:10:16;38.22;;;18.40;;
79015;SDS011;72726;44.842;37.556;2024-03-06T04:11:17;43.70;;;19.58;;
79015;SDS011;72726;44.842;37.556;2024-03-06T04:12:19;40.65;;;19.05;;
79015;SDS011;72726;44.842;37.556;2024-03-06T04:13:20;38.90;;;18.70;;
79015;SDS011;72726;44.842;37.556;2024-03-06T04:14:22;43.45;;;19.33;;
79015;SDS011;72726;44.842;37.556;2024-03-06T04:15:23;42.65;;;20.15;;
79015;SDS011;72726;44.842;37.556;2024-03-06T04:16:25;41.20;;;20.60;;
79015;SDS011;72726;44.842;37.556;2024-03-06T04:17:27;47.10;;;20.25;;
79015;SDS011;72726;44.842;37.556;2024-03-06T04:18:31;39.42;;;18.73;;
79015;SDS011;72726;44.842;37.556;2024-03-06T04:19:34;40.67;;;18.75;;
79015;SDS011;72726;44.842;37.556;2024-03-06T04:20:35;39.70;;;18.38;;
79015;SDS011;72726;44.842;37.556;2024-03-06T04:21:43;40.30;;;19.58;;
79015;SDS011;72726;44.842;37.556;2024-03-06T04:22:44;36.30;;;18.60;;
79015;SDS011;72726;44.842;37.556;2024-03-06T04:23:47;41.75;;;18.35;;
79015;SDS011;72726;44.842;37.556;2024-03-06T04:24:48;36.88;;;18.27;;
79015;SDS011;72726;44.842;37.556;2024-03-06T04:25:50;37.80;;;18.08;;
79015;SDS011;72726;44.842;37.556;2024-03-06T04:26:51;39.70;;;18.35;;
79015;SDS011;72726;44.842;37.556;2024-03-06T04:27:53;39.95;;;19.10;;
79015;SDS011;72726;44.842;37.556;2024-03-06T04:28:54;38.13;;;17.85;;
79015;SDS011;72726;44.842;37.556;2024-03-06T04:29:55;39.13;;;18.30;;
79015;SDS011;72726;44.842;37.556;2024-03-06T04:30:57;38.15;;;19.27;;
79015;SDS011;72726;44.842;37.556;2024-03-06T04:31:58;39.50;;;17.90;;
79015;SDS011;72726;44.842;37.556;2024-03-06T04:33:00;35.97;;;19.35;;
79015;SDS011;72726;44.842;37.556;2024-03-06T04:34:01;38.67;;;17.88;;
79015;SDS011;72726;44.842;37.556;2024-03-06T04:35:03;38.63;;;18.33;;
79015;SDS011;72726;44.842;37.556;2024-03-06T04:36:05;37.40;;;18.00;;
79015;SDS011;72726;44.842;37.556;2024-03-06T04:37:06;32.45;;;17.05;;
79015;SDS011;72726;44.842;37.556;2024-03-06T04:38:08;34.97;;;17.10;;
79015;SDS011;72726;44.842;37.556;2024-03-06T04:39:09;32.50;;;16.77;;
79015;SDS011;72726;44.842;37.556;2024-03-06T04:40:11;36.10;;;17.02;;
79015;SDS011;72726;44.842;37.556;2024-03-06T04:41:17;31.65;;;16.23;;
79015;SDS011;72726;44.842;37.556;2024-03-06T04:42:19;40.60;;;17.00;;
79015;SDS011;72726;44.842;37.556;2024-03-06T04:43:21;39.65;;;17.35;;
79015;SDS011;72726;44.842;37.556;2024-03-06T04:44:22;34.03;;;17.08;;
79015;SDS011;72726;44.842;37.556;2024-03-06T04:45:23;37.80;;;16.63;;
79015;SDS011;72726;44.842;37.556;2024-03-06T04:46:25;34.58;;;17.55;;
79015;SDS011;72726;44.842;37.556;2024-03-06T04:47:26;32.95;;;16.95;;
79015;SDS011;72726;44.842;37.556;2024-03-06T04:48:27;39.75;;;18.08;;
79015;SDS011;72726;44.842;37.556;2024-03-06T04:49:32;33.55;;;16.98;;
79015;SDS011;72726;44.842;37.556;2024-03-06T04:50:35;37.65;;;17.98;;
79015;SDS011;72726;44.842;37.556;2024-03-06T04:51:36;32.13;;;17.00;;
79015;SDS011;72726;44.842;37.556;2024-03-06T04:52:37;37.85;;;18.25;;
79015;SDS011;72726;44.842;37.556;2024-03-06T04:53:39;35.95;;;17.02;;
79015;SDS011;72726;44.842;37.556;2024-03-06T04:54:40;43.53;;;17.92;;
79015;SDS011;72726;44.842;37.556;2024-03-06T04:55:41;37.17;;;18.55;;
79015;SDS011;72726;44.842;37.556;2024-03-06T04:56:43;40.30;;;18.27;;
79015;SDS011;72726;44.842;37.556;2024-03-06T04:57:44;36.67;;;17.27;;
79015;SDS011;72726;44.842;37.556;2024-03-06T04:58:46;35.42;;;16.90;;
79015;SDS011;72726;44.842;37.556;2024-03-06T04:59:48;37.17;;;17.00;;
79015;SDS011;72726;44.842;37.556;2024-03-06T05:00:49;41.80;;;17.00;;
79015;SDS011;72726;44.842;37.556;2024-03-06T05:01:50;35.55;;;17.88;;
79015;SDS011;72726;44.842;37.556;2024-03-06T05:02:51;40.40;;;17.67;;
79015;SDS011;72726;44.842;37.556;2024-03-06T05:03:53;35.40;;;17.65;;
79015;SDS011;72726;44.842;37.556;2024-03-06T05:04:54;36.53;;;17.92;;
79015;SDS011;72726;44.842;37.556;2024-03-06T05:05:55;38.50;;;18.48;;
79015;SDS011;72726;44.842;37.556;2024-03-06T05:06:57;37.72;;;17.98;;
79015;SDS011;72726;44.842;37.556;2024-03-06T05:07:58;35.38;;;17.35;;
79015;SDS011;72726;44.842;37.556;2024-03-06T05:08:59;37.38;;;18.40;;
79015;SDS011;72726;44.842;37.556;2024-03-06T05:10:02;36.90;;;17.23;;
79015;SDS011;72726;44.842;37.556;2024-03-06T05:11:03;35.97;;;17.95;;
79015;SDS011;72726;44.842;37.556;2024-03-06T05:12:05;35.45;;;16.25;;
79015;SDS011;72726;44.842;37.556;2024-03-06T05:13:06;35.63;;;17.70;;
79015;SDS011;72726;44.842;37.556;2024-03-06T05:14:08;36.60;;;17.80;;
79015;SDS011;72726;44.842;37.556;2024-03-06T05:15:09;35.75;;;17.50;;
79015;SDS011;72726;44.842;37.556;2024-03-06T05:16:11;36.72;;;18.02;;
79015;SDS011;72726;44.842;37.556;2024-03-06T05:17:12;40.78;;;18.90;;
79015;SDS011;72726;44.842;37.556;2024-03-06T05:18:14;36.33;;;18.42;;
79015;SDS011;72726;44.842;37.556;2024-03-06T05:19:15;33.35;;;17.67;;
79015;SDS011;72726;44.842;37.556;2024-03-06T05:20:16;32.45;;;14.93;;
79015;SDS011;72726;44.842;37.556;2024-03-06T05:21:24;31.50;;;17.38;;
79015;SDS011;72726;44.842;37.556;2024-03-06T05:22:25;37.53;;;17.13;;
79015;SDS011;72726;44.842;37.556;2024-03-06T05:23:27;36.70;;;17.30;;
79015;SDS011;72726;44.842;37.556;2024-03-06T05:24:29;34.78;;;17.08;;
79015;SDS011;72726;44.842;37.556;2024-03-06T05:25:31;33.00;;;16.08;;
79015;SDS011;72726;44.842;37.556;2024-03-06T05:26:32;34.20;;;17.15;;
79015;SDS011;72726;44.842;37.556;2024-03-06T05:27:37;35.60;;;17.35;;
79015;SDS011;72726;44.842;37.556;2024-03-06T05:28:38;32.08;;;16.65;;
79015;SDS011;72726;44.842;37.556;2024-03-06T05:29:40;37.63;;;17.67;;
79015;SDS011;72726;44.842;37.556;2024-03-06T05:30:41;32.85;;;16.70;;
79015;SDS011;72726;44.842;37.556;2024-03-06T05:31:43;38.30;;;17.88;;
79015;SDS011;72726;44.842;37.556;2024-03-06T05:32:44;32.85;;;16.92;;
79015;SDS011;72726;44.842;37.556;2024-03-06T05:33:47;34.85;;;17.55;;
79015;SDS011;72726;44.842;37.556;2024-03-06T05:34:50;33.58;;;17.30;;
79015;SDS011;72726;44.842;37.556;2024-03-06T05:35:51;37.38;;;16.45;;
79015;SDS011;72726;44.842;37.556;2024-03-06T05:36:52;34.03;;;17.52;;
79015;SDS011;72726;44.842;37.556;2024-03-06T05:37:54;38.05;;;17.13;;
79015;SDS011;72726;44.842;37.556;2024-03-06T05:38:55;34.33;;;18.13;;
79015;SDS011;72726;44.842;37.556;2024-03-06T05:39:57;42.60;;;18.13;;
79015;SDS011;72726;44.842;37.556;2024-03-06T05:40:59;36.90;;;19.02;;
79015;SDS011;72726;44.842;37.556;2024-03-06T05:42:01;35.00;;;18.23;;
79015;SDS011;72726;44.842;37.556;2024-03-06T05:43:06;36.63;;;17.88;;
79015;SDS011;72726;44.842;37.556;2024-03-06T05:44:08;36.10;;;17.73;;
79015;SDS011;72726;44.842;37.556;2024-03-06T05:45:10;32.20;;;17.35;;
79015;SDS011;72726;44.842;37.556;2024-03-06T05:46:12;38.20;;;18.15;;
79015;SDS011;72726;44.842;37.556;2024-03-06T05:47:14;38.40;;;18.63;;
79015;SDS011;72726;44.842;37.556;2024-03-06T05:48:15;37.55;;;17.23;;
79015;SDS011;72726;44.842;37.556;2024-03-06T05:49:19;34.17;;;17.38;;
79015;SDS011;72726;44.842;37.556;2024-03-06T05:50:20;32.97;;;17.25;;
79015;SDS011;72726;44.842;37.556;2024-03-06T05:51:22;37.20;;;17.58;;
79015;SDS011;72726;44.842;37.556;2024-03-06T05:52:23;41.70;;;18.70;;
79015;SDS011;72726;44.842;37.556;2024-03-06T05:53:25;28.88;;;15.88;;
79015;SDS011;72726;44.842;37.556;2024-03-06T05:54:29;36.25;;;17.00;;
79015;SDS011;72726;44.842;37.556;2024-03-06T05:55:34;35.25;;;17.13;;